createdAt,value
2018-08-24T04:07:20.314Z,13.00
2018-08-24T04:17:28.672Z,11.40
2018-08-24T04:27:32.878Z,12.80
2018-08-24T04:37:36.537Z,11.17
2018-08-24T04:47:39.018Z,10.90
2018-08-24T04:57:41.497Z,8.20
2018-08-24T05:07:43.995Z,9.70
2018-08-24T05:17:46.570Z,9.90
2018-08-24T05:27:49.127Z,9.53
2018-08-24T05:37:51.639Z,10.47
2018-08-24T05:47:54.333Z,9.00
2018-08-24T05:57:56.828Z,8.57
2018-08-24T06:07:59.391Z,8.00
2018-08-24T06:18:01.981Z,9.30
2018-08-24T06:28:04.619Z,9.00
2018-08-24T06:38:07.131Z,8.23
2018-08-24T06:48:13.375Z,7.50
2018-08-24T06:58:16.988Z,7.77
2018-08-24T07:08:19.564Z,7.50
2018-08-24T07:18:22.047Z,8.97
2018-08-24T07:28:24.570Z,7.70
2018-08-24T07:38:27.152Z,8.60
2018-08-24T07:48:29.865Z,9.57
2018-08-24T07:58:32.790Z,10.37
2018-08-24T08:08:35.292Z,10.10
2018-08-24T08:18:38.941Z,9.43
2018-08-24T08:28:41.740Z,9.83
2018-08-24T08:38:44.417Z,9.47
2018-08-24T08:48:49.127Z,8.33
2018-08-24T08:58:53.100Z,7.80
2018-08-24T09:08:55.982Z,6.07
2018-08-24T09:19:04.547Z,6.20
2018-08-24T09:29:12.963Z,6.23
2018-08-24T09:39:15.595Z,5.13
2018-08-24T09:49:24.392Z,5.63
2018-08-24T09:59:27.126Z,4.90
2018-08-24T10:09:29.823Z,4.50
2018-08-24T10:19:32.850Z,4.30
2018-08-24T10:29:35.463Z,4.53
2018-08-24T10:39:39.295Z,4.60
2018-08-24T10:49:45.582Z,4.30
2018-08-24T10:59:48.171Z,3.87
2018-08-24T11:09:50.718Z,4.80
2018-08-24T11:19:54.108Z,4.13
2018-08-24T11:29:56.787Z,3.60
2018-08-24T11:39:59.240Z,4.53
2018-08-24T11:50:01.778Z,4.00
2018-08-24T12:00:04.663Z,3.90
2018-08-24T12:10:07.245Z,3.60
2018-08-24T12:20:09.707Z,3.87
2018-08-24T12:30:15.468Z,3.10
2018-08-24T12:40:19.046Z,3.90
2018-08-24T12:50:23.615Z,3.47
2018-08-24T13:00:26.222Z,3.00
2018-08-24T13:10:32.049Z,3.40
2018-08-24T13:20:34.610Z,19.37
2018-08-24T13:30:37.113Z,4.07
2018-08-24T13:40:39.707Z,3.60
2018-08-24T13:50:42.282Z,3.30
2018-08-24T14:00:45.879Z,3.67
2018-08-24T14:10:48.467Z,3.83
2018-08-24T14:20:52.105Z,3.67
2018-08-24T14:30:54.586Z,3.20
2018-08-24T14:40:58.187Z,3.17
2018-08-24T14:51:00.670Z,3.13
2018-08-24T15:01:03.175Z,3.30
2018-08-24T15:11:05.875Z,3.30
2018-08-24T15:21:08.461Z,3.13
2018-08-24T15:31:12.043Z,3.10
2018-08-24T15:41:15.623Z,3.20
2018-08-24T15:51:21.324Z,3.60
2018-08-24T16:01:23.936Z,4.30
2018-08-24T16:11:26.599Z,4.73
2018-08-24T16:21:29.536Z,4.37
2018-08-24T16:31:32.030Z,4.50
2018-08-24T16:41:34.529Z,5.63
2018-08-24T16:51:37.357Z,5.60
2018-08-24T17:01:41.943Z,6.50
2018-08-24T17:11:44.552Z,6.33
2018-08-24T17:21:48.139Z,6.50
2018-08-24T17:31:50.702Z,6.90
2018-08-24T17:41:53.351Z,6.10
2018-08-24T17:51:55.815Z,6.80
2018-08-24T18:01:59.401Z,7.27
2018-08-24T18:12:01.875Z,8.00
2018-08-24T18:22:05.983Z,8.40
2018-08-24T18:32:09.564Z,7.70
2018-08-24T18:42:13.075Z,7.40
2018-08-24T18:52:15.652Z,7.17
2018-08-24T19:02:18.378Z,15.20
2018-08-24T19:12:29.117Z,39.40
2018-08-24T19:22:33.049Z,21.70
2018-08-24T19:32:38.389Z,9.23
2018-08-24T19:42:41.091Z,8.53
2018-08-24T19:52:43.611Z,8.43
2018-08-24T20:02:46.179Z,8.57
2018-08-24T20:12:48.783Z,8.67
2018-08-24T20:23:04.998Z,8.20
2018-08-24T20:33:09.416Z,8.30
2018-08-24T20:43:14.451Z,8.40
2018-08-24T20:53:22.570Z,8.40
2018-08-24T21:03:40.895Z,8.20
2018-08-24T21:13:43.844Z,8.30
2018-08-24T21:23:46.311Z,7.70
2018-08-24T21:33:48.814Z,6.90
2018-08-24T21:43:51.463Z,8.73
2018-08-24T21:53:55.235Z,7.40
2018-08-24T22:03:57.768Z,6.80
2018-08-24T22:14:00.246Z,7.27
2018-08-24T22:24:03.822Z,7.60
2018-08-24T22:34:06.463Z,7.13
2018-08-24T22:44:09.145Z,7.50
2018-08-24T22:54:11.723Z,7.53
2018-08-24T23:04:14.353Z,6.40
2018-08-24T23:14:16.890Z,6.67
2018-08-24T23:24:20.002Z,7.03
2018-08-24T23:34:23.792Z,6.23
2018-08-24T23:44:26.311Z,6.70
2018-08-24T23:54:28.819Z,6.20
